createdAt,value
2023-05-20T00:02:06.282Z,10.65
2023-05-20T00:04:51.812Z,12.73
2023-05-20T00:07:37.392Z,12.65
2023-05-20T00:10:22.773Z,13.35
2023-05-20T00:13:08.240Z,11.85
2023-05-20T00:15:53.723Z,11.93
2023-05-20T00:18:39.130Z,13.40
2023-05-20T00:21:24.848Z,10.13
2023-05-20T00:24:10.178Z,9.95
2023-05-20T00:26:55.572Z,10.80
2023-05-20T00:29:41.021Z,12.48
2023-05-20T00:32:26.581Z,12.80
2023-05-20T00:35:13.029Z,16.83
2023-05-20T00:37:58.642Z,12.38
2023-05-20T00:40:44.278Z,15.23
2023-05-20T00:43:29.556Z,9.73
2023-05-20T00:46:14.903Z,11.55
2023-05-20T00:49:00.584Z,14.10
2023-05-20T00:51:47.238Z,16.48
2023-05-20T00:54:33.181Z,12.60
2023-05-20T00:57:20.088Z,12.13
2023-05-20T01:00:08.045Z,11.73
2023-05-20T01:02:56.426Z,10.13
2023-05-20T01:05:42.661Z,10.93
2023-05-20T01:08:28.706Z,10.65
2023-05-20T01:11:26.463Z,10.25
2023-05-20T01:14:13.140Z,12.68
2023-05-20T01:17:09.185Z,12.50
2023-05-20T01:19:56.130Z,8.38
2023-05-20T01:22:49.063Z,11.45
2023-05-20T01:28:19.848Z,10.68
2023-05-20T01:31:09.821Z,13.98
2023-05-20T01:33:58.859Z,15.07
2023-05-20T01:36:46.224Z,10.55
2023-05-20T01:39:33.935Z,12.07
2023-05-20T01:42:21.020Z,9.77
2023-05-20T01:45:07.517Z,11.75
2023-05-20T01:47:53.091Z,9.45
2023-05-20T01:50:39.161Z,9.02
2023-05-20T01:53:24.891Z,8.95
2023-05-20T01:56:10.356Z,9.30
2023-05-20T01:58:55.809Z,9.10
2023-05-20T02:01:42.909Z,11.18
2023-05-20T02:04:28.284Z,7.78
2023-05-20T02:07:15.100Z,11.80
2023-05-20T02:10:00.382Z,11.52
2023-05-20T02:12:47.946Z,9.52
2023-05-20T02:15:33.849Z,9.65
2023-05-20T02:18:19.612Z,9.23
2023-05-20T02:21:05.546Z,9.13
2023-05-20T02:23:51.322Z,6.90
2023-05-20T02:26:36.635Z,9.40
2023-05-20T02:29:22.233Z,9.70
2023-05-20T02:32:08.944Z,8.88
2023-05-20T02:34:55.454Z,10.10
2023-05-20T02:37:40.863Z,10.70
2023-05-20T02:40:26.398Z,8.15
2023-05-20T02:43:12.930Z,8.30
2023-05-20T02:45:58.341Z,7.60
2023-05-20T02:48:43.850Z,11.50
2023-05-20T02:51:29.247Z,11.90
2023-05-20T02:54:14.652Z,10.98
2023-05-20T02:57:00.089Z,12.00
2023-05-20T02:59:46.139Z,10.93
2023-05-20T03:02:31.512Z,10.43
2023-05-20T03:05:16.835Z,10.63
2023-05-20T03:08:02.264Z,7.72
2023-05-20T03:10:47.696Z,12.20
2023-05-20T03:13:33.115Z,10.85
2023-05-20T03:16:18.753Z,12.25
2023-05-20T03:19:04.363Z,11.02
2023-05-20T03:21:50.660Z,10.82
2023-05-20T03:24:36.277Z,10.68
2023-05-20T03:27:21.906Z,10.63
2023-05-20T03:30:09.544Z,9.90
2023-05-20T03:32:57.747Z,9.80
2023-05-20T03:35:43.476Z,12.05
2023-05-20T03:38:28.843Z,10.43
2023-05-20T03:41:14.232Z,10.90
2023-05-20T03:43:59.813Z,9.00
2023-05-20T03:46:45.574Z,10.32
2023-05-20T03:49:31.976Z,12.20
2023-05-20T03:52:17.373Z,12.10
2023-05-20T03:55:03.980Z,9.95
2023-05-20T03:57:49.816Z,12.13
2023-05-20T04:00:35.720Z,10.57
2023-05-20T04:03:22.833Z,8.73
2023-05-20T04:06:08.375Z,10.57
2023-05-20T04:08:54.553Z,10.43
2023-05-20T04:11:40.383Z,11.38
2023-05-20T04:14:25.773Z,10.52
2023-05-20T04:17:11.155Z,11.98
2023-05-20T04:19:58.394Z,11.25
2023-05-20T04:22:43.469Z,9.82
2023-05-20T04:25:28.941Z,12.02
2023-05-20T04:28:16.317Z,10.27
2023-05-20T04:31:04.452Z,10.50
2023-05-20T04:33:53.578Z,9.90
2023-05-20T04:36:39.697Z,8.75
2023-05-20T04:39:26.851Z,12.43
2023-05-20T04:42:12.230Z,12.65
2023-05-20T04:44:58.209Z,10.65
2023-05-20T04:47:44.229Z,8.55
2023-05-20T04:50:29.580Z,12.35
2023-05-20T04:53:24.229Z,9.90
2023-05-20T04:56:09.352Z,8.38
2023-05-20T04:58:56.027Z,8.77
2023-05-20T05:01:41.270Z,9.02
2023-05-20T05:04:26.713Z,7.70
2023-05-20T05:07:12.084Z,10.15
2023-05-20T05:09:57.628Z,8.45
2023-05-20T05:12:42.980Z,10.23
2023-05-20T05:15:28.630Z,7.72
2023-05-20T05:18:18.352Z,8.35
2023-05-20T05:21:05.503Z,8.65
2023-05-20T05:23:52.982Z,10.13
2023-05-20T05:26:38.662Z,8.70
2023-05-20T05:29:24.451Z,9.27
2023-05-20T05:32:10.023Z,7.60
2023-05-20T05:34:55.568Z,10.52
2023-05-20T05:37:41.410Z,8.60
2023-05-20T05:40:27.773Z,8.32
2023-05-20T05:43:13.050Z,12.73
2023-05-20T05:45:58.815Z,6.13
2023-05-20T05:49:03.171Z,7.90
2023-05-20T05:51:48.515Z,9.73
2023-05-20T05:54:33.990Z,8.85
2023-05-20T05:57:20.058Z,11.02
2023-05-20T06:00:07.989Z,7.13
2023-05-20T06:03:03.719Z,8.30
2023-05-20T06:05:52.942Z,8.90
2023-05-20T06:08:39.401Z,8.00
2023-05-20T06:11:26.455Z,6.20
2023-05-20T06:14:11.672Z,7.00
2023-05-20T06:16:57.208Z,6.20
2023-05-20T06:19:42.395Z,7.03
2023-05-20T06:22:27.731Z,8.15
2023-05-20T06:25:13.953Z,5.28
2023-05-20T06:28:00.253Z,8.52
2023-05-20T06:30:45.781Z,6.30
2023-05-20T06:33:31.077Z,6.13
2023-05-20T06:36:19.789Z,5.78
2023-05-20T06:39:11.291Z,6.80
2023-05-20T06:41:57.105Z,7.73
2023-05-20T06:44:47.382Z,7.05
2023-05-20T06:47:39.482Z,5.63
2023-05-20T06:50:28.313Z,5.50
2023-05-20T06:53:13.583Z,7.28
2023-05-20T06:55:59.136Z,4.60
2023-05-20T06:58:45.081Z,5.03
2023-05-20T07:01:30.878Z,5.20
2023-05-20T07:04:16.369Z,6.22
2023-05-20T07:07:02.527Z,5.75
2023-05-20T07:09:48.302Z,4.93
2023-05-20T07:12:36.551Z,6.60
2023-05-20T07:15:22.604Z,7.88
2023-05-20T07:18:08.096Z,6.00
2023-05-20T07:20:53.549Z,7.32
2023-05-20T07:23:57.760Z,5.68
2023-05-20T07:26:43.289Z,8.95
2023-05-20T07:29:28.755Z,5.45
2023-05-20T07:32:13.966Z,5.97
2023-05-20T07:34:59.562Z,5.78
2023-05-20T07:37:44.966Z,5.93
2023-05-20T07:40:30.887Z,6.60
2023-05-20T07:43:16.401Z,5.28
2023-05-20T07:46:02.932Z,5.82
2023-05-20T07:48:48.270Z,5.55
2023-05-20T07:51:34.687Z,5.43
2023-05-20T07:54:20.104Z,5.70
2023-05-20T07:57:08.392Z,6.15
2023-05-20T07:59:53.672Z,5.53
2023-05-20T08:02:39.698Z,8.07
2023-05-20T08:05:26.560Z,7.57
2023-05-20T08:08:11.797Z,7.53
2023-05-20T08:11:08.195Z,7.75
2023-05-20T08:13:54.299Z,6.53
2023-05-20T08:16:42.655Z,8.00
2023-05-20T08:19:28.380Z,5.32
2023-05-20T08:22:13.625Z,5.75
2023-05-20T08:24:59.680Z,6.72
2023-05-20T08:27:45.016Z,7.10
2023-05-20T08:30:31.536Z,5.30
2023-05-20T08:33:17.760Z,7.15
2023-05-20T08:36:02.899Z,5.97
2023-05-20T08:38:49.103Z,4.95
2023-05-20T08:41:34.488Z,8.35
2023-05-20T08:44:22.693Z,6.93
2023-05-20T08:47:10.213Z,8.25
2023-05-20T08:49:55.886Z,7.72
2023-05-20T08:52:49.092Z,7.65
2023-05-20T08:55:46.602Z,10.07
2023-05-20T08:58:35.732Z,5.03
2023-05-20T09:01:25.993Z,4.60
2023-05-20T09:04:11.894Z,6.90
2023-05-20T09:06:57.018Z,6.63
2023-05-20T09:09:42.413Z,8.25
2023-05-20T09:12:27.820Z,6.10
2023-05-20T09:15:13.320Z,5.70
2023-05-20T09:18:07.646Z,6.35
2023-05-20T09:20:52.976Z,5.93
2023-05-20T09:23:38.650Z,7.22
2023-05-20T09:26:28.723Z,5.72
2023-05-20T09:29:14.013Z,6.78
2023-05-20T09:32:03.222Z,5.15
2023-05-20T09:34:48.741Z,8.68
2023-05-20T09:37:35.885Z,6.82
2023-05-20T09:40:26.451Z,8.82
2023-05-20T09:43:12.417Z,6.53
2023-05-20T09:45:59.512Z,4.35
2023-05-20T09:48:45.086Z,6.10
2023-05-20T09:51:32.290Z,6.43
2023-05-20T09:54:22.457Z,5.22
2023-05-20T09:57:09.326Z,4.95
2023-05-20T09:59:54.661Z,6.28
2023-05-20T10:02:46.655Z,8.00
2023-05-20T10:05:37.522Z,5.75
2023-05-20T10:08:35.615Z,5.80
2023-05-20T10:11:39.961Z,7.00
2023-05-20T10:14:57.221Z,5.40
2023-05-20T10:17:58.964Z,6.18
2023-05-20T10:20:48.482Z,5.05
2023-05-20T10:23:33.639Z,4.30
2023-05-20T10:26:19.596Z,5.00
2023-05-20T10:29:18.519Z,6.20
2023-05-20T10:32:04.139Z,5.13
2023-05-20T10:34:51.306Z,6.03
2023-05-20T10:37:45.264Z,4.95
2023-05-20T10:40:30.961Z,6.05
2023-05-20T10:43:36.484Z,5.57
2023-05-20T10:46:33.994Z,6.45
2023-05-20T10:49:34.976Z,4.22
2023-05-20T10:52:21.051Z,7.13
2023-05-20T10:55:07.482Z,5.13
2023-05-20T10:57:53.566Z,3.35
2023-05-20T11:00:39.322Z,4.10
2023-05-20T11:03:25.930Z,3.65
2023-05-20T11:06:17.607Z,6.80
2023-05-20T11:09:07.347Z,4.05
2023-05-20T11:11:55.376Z,3.72
2023-05-20T11:14:40.706Z,7.10
2023-05-20T11:17:26.185Z,7.68
2023-05-20T11:20:14.386Z,5.43
2023-05-20T11:22:59.659Z,4.53
2023-05-20T11:25:45.167Z,4.53
2023-05-20T11:28:30.941Z,5.30
2023-05-20T11:31:16.798Z,4.60
2023-05-20T11:34:02.470Z,4.50
2023-05-20T11:36:50.840Z,3.35
2023-05-20T11:39:37.038Z,5.97
2023-05-20T11:42:22.635Z,6.20
2023-05-20T11:45:14.136Z,4.88
2023-05-20T11:48:04.037Z,3.38
2023-05-20T11:50:49.409Z,4.55
2023-05-20T11:53:34.974Z,5.75
2023-05-20T11:56:21.496Z,4.93
2023-05-20T11:59:08.593Z,8.82
2023-05-20T12:01:53.985Z,4.50
2023-05-20T12:04:39.351Z,4.05
2023-05-20T12:07:24.727Z,4.38
2023-05-20T12:10:11.080Z,6.47
2023-05-20T12:12:56.454Z,3.38
2023-05-20T12:15:42.225Z,6.47
2023-05-20T12:18:27.539Z,4.60
2023-05-20T12:21:12.907Z,3.92
2023-05-20T12:23:59.420Z,4.70
2023-05-20T12:26:44.506Z,3.80
2023-05-20T12:29:30.133Z,4.07
2023-05-20T12:32:15.709Z,5.78
2023-05-20T12:35:01.247Z,3.42
2023-05-20T12:37:46.641Z,4.22
2023-05-20T12:40:32.613Z,4.55
2023-05-20T12:43:18.360Z,3.88
2023-05-20T12:46:03.953Z,4.50
2023-05-20T12:48:49.527Z,4.30
2023-05-20T12:51:34.937Z,8.40
2023-05-20T12:54:20.941Z,3.35
2023-05-20T12:57:06.565Z,4.43
2023-05-20T12:59:52.210Z,5.18
2023-05-20T13:02:39.923Z,4.43
2023-05-20T13:05:25.827Z,4.95
2023-05-20T13:08:12.621Z,3.63
2023-05-20T13:10:58.185Z,4.45
2023-05-20T13:13:43.482Z,6.88
2023-05-20T13:16:28.976Z,10.55
2023-05-20T13:19:14.385Z,4.43
2023-05-20T13:21:59.672Z,3.53
2023-05-20T13:24:44.965Z,4.53
2023-05-20T13:27:30.733Z,5.72
2023-05-20T13:30:16.463Z,8.00
2023-05-20T13:33:01.975Z,5.13
2023-05-20T13:35:47.524Z,4.13
2023-05-20T13:38:34.436Z,6.22
2023-05-20T13:41:20.651Z,3.92
2023-05-20T13:44:06.156Z,3.95
2023-05-20T13:46:51.815Z,4.00
2023-05-20T13:49:37.344Z,4.80
2023-05-20T13:52:22.712Z,3.42
2023-05-20T13:55:08.509Z,2.60
2023-05-20T13:57:54.263Z,6.25
2023-05-20T14:00:39.776Z,2.80
2023-05-20T14:03:25.266Z,3.55
2023-05-20T14:06:10.629Z,4.20
2023-05-20T14:08:56.874Z,5.82
2023-05-20T14:11:42.422Z,5.93
2023-05-20T14:14:27.990Z,2.70
2023-05-20T14:17:13.455Z,4.18
2023-05-20T14:20:00.491Z,5.05
2023-05-20T14:22:46.014Z,2.75
2023-05-20T14:25:31.364Z,5.80
2023-05-20T14:28:16.596Z,2.97
2023-05-20T14:31:01.988Z,4.47
2023-05-20T14:33:47.520Z,5.13
2023-05-20T14:36:32.963Z,3.38
2023-05-20T14:39:18.342Z,4.13
2023-05-20T14:42:04.351Z,4.57
2023-05-20T14:44:49.874Z,3.42
2023-05-20T14:47:35.507Z,4.85
2023-05-20T14:50:21.118Z,5.78
2023-05-20T14:53:06.551Z,5.50
2023-05-20T14:55:52.059Z,3.55
2023-05-20T14:58:37.422Z,5.07
2023-05-20T15:01:22.867Z,6.20
2023-05-20T15:04:08.235Z,3.67
2023-05-20T15:06:53.742Z,6.13
2023-05-20T15:09:39.313Z,5.65
2023-05-20T15:12:24.654Z,6.03
2023-05-20T15:15:10.677Z,10.13
2023-05-20T15:17:56.486Z,7.40
2023-05-20T15:20:42.132Z,5.53
2023-05-20T15:23:28.047Z,7.03
2023-05-20T15:26:13.493Z,6.43
2023-05-20T15:28:58.996Z,9.85
2023-05-20T15:31:44.445Z,6.32
2023-05-20T15:34:29.733Z,5.68
2023-05-20T15:37:16.194Z,7.47
2023-05-20T15:40:02.184Z,7.30
2023-05-20T15:42:47.899Z,6.38
2023-05-20T15:45:33.714Z,6.97
2023-05-20T15:48:19.224Z,8.00
2023-05-20T15:51:05.127Z,5.38
2023-05-20T15:53:50.665Z,6.05
2023-05-20T15:56:36.076Z,6.10
2023-05-20T15:59:21.526Z,8.27
2023-05-20T16:02:06.992Z,7.53
2023-05-20T16:04:52.535Z,6.50
2023-05-20T16:07:38.157Z,8.30
2023-05-20T16:10:25.415Z,8.05
2023-05-20T16:13:11.504Z,8.38
2023-05-20T16:15:57.639Z,7.32
2023-05-20T16:18:43.281Z,6.30
2023-05-20T16:21:28.597Z,7.53
2023-05-20T16:24:14.498Z,8.43
2023-05-20T16:26:59.880Z,6.53
2023-05-20T16:29:45.625Z,8.05
2023-05-20T16:32:30.845Z,9.88
2023-05-20T16:35:16.741Z,6.50
2023-05-20T16:38:02.001Z,6.82
2023-05-20T16:40:47.829Z,6.97
2023-05-20T16:43:32.854Z,7.78
2023-05-20T16:46:18.559Z,7.20
2023-05-20T16:49:03.804Z,7.40
2023-05-20T16:51:50.991Z,9.98
2023-05-20T16:54:36.408Z,8.35
2023-05-20T16:57:21.834Z,8.68
2023-05-20T17:00:08.871Z,8.18
2023-05-20T17:02:54.475Z,7.40
2023-05-20T17:05:39.815Z,7.35
2023-05-20T17:08:25.689Z,9.27
2023-05-20T17:11:10.723Z,6.95
2023-05-20T17:13:56.305Z,7.30
2023-05-20T17:16:41.690Z,6.78
2023-05-20T17:19:27.182Z,5.78
2023-05-20T17:22:12.980Z,10.38
2023-05-20T17:24:58.488Z,11.25
2023-05-20T17:27:44.237Z,6.65
2023-05-20T17:30:29.534Z,7.03
2023-05-20T17:33:14.912Z,8.07
2023-05-20T17:36:00.558Z,7.50
2023-05-20T17:38:45.846Z,9.95
2023-05-20T17:41:31.664Z,6.93
2023-05-20T17:44:16.857Z,6.43
2023-05-20T17:47:02.694Z,7.45
2023-05-20T17:49:47.875Z,6.15
2023-05-20T17:52:33.394Z,9.20
2023-05-20T17:55:19.004Z,7.07
2023-05-20T17:58:04.674Z,6.07
2023-05-20T18:00:49.789Z,7.90
2023-05-20T18:03:35.988Z,9.73
2023-05-20T18:06:21.650Z,7.38
2023-05-20T18:09:08.055Z,6.47
2023-05-20T18:11:53.195Z,9.05
2023-05-20T18:14:38.537Z,5.85
2023-05-20T18:17:24.029Z,6.93
2023-05-20T18:20:10.060Z,7.05
2023-05-20T18:22:58.495Z,7.20
2023-05-20T18:25:44.394Z,9.60
2023-05-20T18:28:29.672Z,8.55
2023-05-20T18:31:15.355Z,7.90
2023-05-20T18:34:01.896Z,8.43
2023-05-20T18:36:47.722Z,5.53
2023-05-20T18:39:32.992Z,7.30
2023-05-20T18:42:18.455Z,7.72
2023-05-20T18:45:04.293Z,6.00
2023-05-20T18:47:49.981Z,7.97
2023-05-20T18:50:35.687Z,8.50
2023-05-20T18:53:21.632Z,4.65
2023-05-20T18:56:07.426Z,6.47
2023-05-20T18:58:53.007Z,6.90
2023-05-20T19:01:39.360Z,7.40
2023-05-20T19:04:25.570Z,5.78
2023-05-20T19:07:11.711Z,7.88
2023-05-20T19:09:57.201Z,6.20
2023-05-20T19:12:43.481Z,6.93
2023-05-20T19:15:30.254Z,8.07
2023-05-20T19:18:15.666Z,6.63
2023-05-20T19:21:01.234Z,5.30
2023-05-20T19:23:47.016Z,6.72
2023-05-20T19:26:33.581Z,5.00
2023-05-20T19:29:18.969Z,7.50
2023-05-20T19:32:04.697Z,5.40
2023-05-20T19:34:49.828Z,7.13
2023-05-20T19:37:35.524Z,6.15
2023-05-20T19:40:20.936Z,6.15
2023-05-20T19:43:07.117Z,5.00
2023-05-20T19:45:52.231Z,4.65
2023-05-20T19:48:37.711Z,7.03
2023-05-20T19:51:23.252Z,5.45
2023-05-20T19:54:10.054Z,4.25
2023-05-20T19:56:55.463Z,4.88
2023-05-20T19:59:41.170Z,6.25
2023-05-20T20:02:26.717Z,4.43
2023-05-20T20:05:12.467Z,4.15
2023-05-20T20:07:57.675Z,5.72
2023-05-20T20:10:43.309Z,4.72
2023-05-20T20:13:28.314Z,6.25
2023-05-20T20:16:15.448Z,5.10
2023-05-20T20:19:01.256Z,5.47
2023-05-20T20:21:46.602Z,4.03
2023-05-20T20:24:32.110Z,5.13
2023-05-20T20:27:19.316Z,4.93
2023-05-20T20:30:06.107Z,3.80
2023-05-20T20:32:53.355Z,4.05
2023-05-20T20:35:39.121Z,5.13
2023-05-20T20:38:24.638Z,5.50
2023-05-20T20:41:10.507Z,4.30
2023-05-20T20:43:56.706Z,3.58
2023-05-20T20:46:43.587Z,6.10
2023-05-20T20:49:29.541Z,3.42
2023-05-20T20:52:15.238Z,4.38
2023-05-20T20:55:00.574Z,5.75
2023-05-20T20:57:46.167Z,3.25
2023-05-20T21:00:31.879Z,3.60
2023-05-20T21:03:18.146Z,3.50
2023-05-20T21:06:03.618Z,6.57
2023-05-20T21:08:48.583Z,3.33
2023-05-20T21:11:38.208Z,3.13
2023-05-20T21:14:23.548Z,3.30
2023-05-20T21:17:09.841Z,4.38
2023-05-20T21:19:55.537Z,4.40
2023-05-20T21:22:41.857Z,3.97
2023-05-20T21:25:27.124Z,3.85
2023-05-20T21:28:13.165Z,5.18
2023-05-20T21:30:58.691Z,2.83
2023-05-20T21:33:44.250Z,3.83
2023-05-20T21:36:29.315Z,3.78
2023-05-20T21:39:15.050Z,4.70
2023-05-20T21:42:00.404Z,2.97
2023-05-20T21:44:45.798Z,4.03
2023-05-20T21:47:31.245Z,3.83
2023-05-20T21:50:16.527Z,3.33
2023-05-20T21:53:01.775Z,3.63
2023-05-20T21:55:47.039Z,4.32
2023-05-20T21:58:33.126Z,8.40
2023-05-20T22:01:18.642Z,5.60
2023-05-20T22:04:04.955Z,4.80
2023-05-20T22:06:51.069Z,4.13
2023-05-20T22:09:36.407Z,5.43
2023-05-20T22:12:22.973Z,5.03
2023-05-20T22:15:08.949Z,5.63
2023-05-20T22:17:54.924Z,3.30
2023-05-20T22:20:42.354Z,4.10
2023-05-20T22:23:28.505Z,5.22
2023-05-20T22:26:14.032Z,3.50
2023-05-20T22:28:59.164Z,2.70
2023-05-20T22:31:44.413Z,4.03
2023-05-20T22:34:29.834Z,4.63
2023-05-20T22:37:15.835Z,4.15
2023-05-20T22:40:01.549Z,5.13
2023-05-20T22:42:46.880Z,5.15
2023-05-20T22:45:32.310Z,6.70
2023-05-20T22:48:17.637Z,4.75
2023-05-20T22:51:03.790Z,6.20
2023-05-20T22:53:49.281Z,5.97
2023-05-20T22:56:34.666Z,5.35
2023-05-20T22:59:19.932Z,4.93
2023-05-20T23:02:06.202Z,4.70
2023-05-20T23:04:51.827Z,4.10
2023-05-20T23:07:37.194Z,5.13
2023-05-20T23:10:24.243Z,5.68
2023-05-20T23:13:09.749Z,9.45
2023-05-20T23:15:55.251Z,5.32
2023-05-20T23:18:41.186Z,5.43
2023-05-20T23:21:26.694Z,5.05
2023-05-20T23:24:12.078Z,4.97
2023-05-20T23:26:59.270Z,4.40
2023-05-20T23:29:44.885Z,6.43
2023-05-20T23:32:30.568Z,7.47
2023-05-20T23:35:18.424Z,5.43
2023-05-20T23:38:03.915Z,5.45
2023-05-20T23:40:49.777Z,8.23
2023-05-20T23:43:35.050Z,6.65
2023-05-20T23:46:20.537Z,6.43
2023-05-20T23:49:06.636Z,5.82
2023-05-20T23:51:52.773Z,6.03
2023-05-20T23:54:38.141Z,8.85
2023-05-20T23:57:23.937Z,7.38
